Time;durP1;ratioP1;P1;durP2;ratioP2;P2;SDS_P1;SDS_P2;PMS_P1;PMS_P2;Temp;Humidity;BMP_temperature;BMP_pressure;BME280_temperature;BME280_humidity;BME280_pressure;Samples;Min_cycle;Max_cycle;Signal;HPM_P1;HPM_P2
2021/08/24 00:01:39;;;;;;;9.07;4.47;;;;;;;;;;4464329;32;20282;-57
2021/08/24 00:04:05;;;;;;;5.55;3.58;;;;;;;;;;4459820;32;20770;-57
2021/08/24 00:06:30;;;;;;;8.80;4.22;;;;;;;;;;4455511;32;20291;-57
2021/08/24 00:08:56;;;;;;;6.05;4.25;;;;;;;;;;4464705;32;20662;-57
2021/08/24 00:11:21;;;;;;;8.52;4.43;;;;;;;;;;4456643;32;20369;-58
2021/08/24 00:13:47;;;;;;;5.32;4.35;;;;;;;;;;4456298;32;20670;-57
2021/08/24 00:16:14;;;;;;;5.90;4.30;;;;;;;;;;4464138;32;20272;-57
2021/08/24 00:18:40;;;;;;;7.30;3.97;;;;;;;;;;4461447;32;20646;-57
2021/08/24 00:21:05;;;;;;;6.32;4.37;;;;;;;;;;4464761;32;20244;-59
2021/08/24 00:23:32;;;;;;;6.32;4.90;;;;;;;;;;4460993;32;20307;-58
2021/08/24 00:25:59;;;;;;;6.35;4.57;;;;;;;;;;4461589;32;20314;-58
2021/08/24 00:28:25;;;;;;;7.80;4.60;;;;;;;;;;4460676;32;20244;-58
2021/08/24 00:30:50;;;;;;;6.80;4.20;;;;;;;;;;4460814;32;20324;-58
2021/08/24 00:33:18;;;;;;;8.77;4.93;;;;;;;;;;4460218;32;20909;-58
2021/08/24 00:35:44;;;;;;;6.10;4.65;;;;;;;;;;4464166;32;20223;-58
2021/08/24 00:38:11;;;;;;;5.72;4.68;;;;;;;;;;4461572;32;20559;-59
2021/08/24 00:40:37;;;;;;;5.60;4.40;;;;;;;;;;4464389;32;20270;-59
2021/08/24 00:43:04;;;;;;;5.97;4.07;;;;;;;;;;4452781;32;20580;-58
2021/08/24 00:45:33;;;;;;;6.80;4.43;;;;;;;;;;4464261;32;20281;-58
2021/08/24 00:47:58;;;;;;;7.07;4.57;;;;;;;;;;4461685;32;20204;-58
2021/08/24 00:50:27;;;;;;;5.87;4.10;;;;;;;;;;4464017;32;20688;-58
2021/08/24 00:52:55;;;;;;;7.90;3.95;;;;;;;;;;4458848;32;20263;-57
2021/08/24 00:55:21;;;;;;;6.32;4.28;;;;;;;;;;4463677;32;20204;-58
2021/08/24 00:57:57;;;;;;;5.32;3.78;;;;;;;;;;4463500;32;20278;-58
2021/08/24 01:00:25;;;;;;;5.68;4.12;;;;;;;;;;4457070;32;20228;-58
2021/08/24 01:02:51;;;;;;;7.78;4.87;;;;;;;;;;4452450;32;20311;-58
2021/08/24 01:05:16;;;;;;;8.48;4.55;;;;;;;;;;4451163;32;20676;-58
2021/08/24 01:07:47;;;;;;;5.65;4.10;;;;;;;;;;4453091;32;20327;-58
2021/08/24 01:10:42;;;;;;;5.68;4.32;;;;;;;;;;4462242;32;20572;-58
2021/08/24 01:13:34;;;;;;;4.87;4.30;;;;;;;;;;4424018;32;20775;-57
2021/08/24 01:16:27;;;;;;;4.95;3.70;;;;;;;;;;4460268;32;20220;-57
2021/08/24 01:18:57;;;;;;;7.35;4.60;;;;;;;;;;4463341;32;20731;-56
2021/08/24 01:22:01;;;;;;;5.78;4.03;;;;;;;;;;4463434;32;20258;-57
2021/08/24 01:24:48;;;;;;;6.05;4.85;;;;;;;;;;4461734;32;20339;-57
2021/08/24 01:27:33;;;;;;;7.95;4.37;;;;;;;;;;4455091;32;20271;-57
2021/08/24 01:30:17;;;;;;;5.60;4.70;;;;;;;;;;4463626;32;20273;-58
2021/08/24 01:33:07;;;;;;;5.78;4.35;;;;;;;;;;4452235;32;20271;-57
2021/08/24 01:35:43;;;;;;;9.65;4.45;;;;;;;;;;4456931;32;20326;-58
2021/08/24 01:38:43;;;;;;;7.60;4.25;;;;;;;;;;4461575;32;20359;-58
2021/08/24 01:41:15;;;;;;;6.60;4.15;;;;;;;;;;4443399;32;20247;-57
2021/08/24 01:43:47;;;;;;;6.07;4.35;;;;;;;;;;4459260;32;20251;-59
2021/08/24 01:46:55;;;;;;;5.35;4.37;;;;;;;;;;4463309;32;20293;-59
2021/08/24 01:49:29;;;;;;;8.48;6.03;;;;;;;;;;4435450;32;20299;-59
2021/08/24 01:51:59;;;;;;;7.28;6.03;;;;;;;;;;4463764;32;20221;-59
2021/08/24 01:54:30;;;;;;;8.13;5.60;;;;;;;;;;4457319;32;20234;-58
2021/08/24 01:56:58;;;;;;;5.57;4.93;;;;;;;;;;4454239;32;20719;-57
2021/08/24 01:59:33;;;;;;;5.80;4.50;;;;;;;;;;4450799;32;20258;-58
2021/08/24 02:02:12;;;;;;;6.80;4.62;;;;;;;;;;4460993;32;20255;-59
2021/08/24 02:05:10;;;;;;;6.65;5.00;;;;;;;;;;4456733;32;20200;-58
2021/08/24 02:07:37;;;;;;;6.25;4.68;;;;;;;;;;4460425;32;20584;-57
2021/08/24 02:10:09;;;;;;;7.18;4.90;;;;;;;;;;4450722;32;20442;-56
2021/08/24 02:12:39;;;;;;;6.20;4.90;;;;;;;;;;4461938;32;20201;-58
2021/08/24 02:15:05;;;;;;;5.60;3.70;;;;;;;;;;4454798;32;20249;-57
2021/08/24 02:17:32;;;;;;;6.95;4.55;;;;;;;;;;4462704;32;20291;-57
2021/08/24 02:20:09;;;;;;;6.68;4.97;;;;;;;;;;4460470;32;20275;-57
2021/08/24 02:22:37;;;;;;;8.05;4.80;;;;;;;;;;4451465;32;20572;-58
2021/08/24 02:25:17;;;;;;;6.85;4.95;;;;;;;;;;4456469;32;20251;-56
2021/08/24 02:27:56;;;;;;;7.43;4.47;;;;;;;;;;4465722;32;20544;-57
2021/08/24 02:30:23;;;;;;;5.35;4.18;;;;;;;;;;4465285;32;20298;-56
2021/08/24 02:32:50;;;;;;;4.68;4.03;;;;;;;;;;4460888;32;20731;-57
2021/08/24 02:35:34;;;;;;;9.50;5.03;;;;;;;;;;4458204;32;20211;-57
2021/08/24 02:38:22;;;;;;;11.43;4.37;;;;;;;;;;4464798;32;20226;-57
2021/08/24 02:41:32;;;;;;;7.22;4.35;;;;;;;;;;4456207;32;20655;-57
2021/08/24 02:43:58;;;;;;;6.60;4.15;;;;;;;;;;4401841;32;20237;-57
2021/08/24 02:46:33;;;;;;;8.15;4.50;;;;;;;;;;4399670;32;20644;-57
2021/08/24 02:49:11;;;;;;;8.18;5.18;;;;;;;;;;4434525;32;20244;-57
2021/08/24 02:51:37;;;;;;;8.65;4.95;;;;;;;;;;4456894;32;20622;-57
2021/08/24 02:54:29;;;;;;;10.38;5.03;;;;;;;;;;4456806;32;20303;-56
2021/08/24 02:56:55;;;;;;;10.02;5.50;;;;;;;;;;4459225;32;20184;-56
2021/08/24 02:59:22;;;;;;;6.85;4.70;;;;;;;;;;4465200;32;20258;-56
2021/08/24 03:01:47;;;;;;;8.82;5.43;;;;;;;;;;4456342;32;20208;-56
2021/08/24 03:04:13;;;;;;;9.27;4.78;;;;;;;;;;4464346;32;20212;-56
2021/08/24 03:06:43;;;;;;;10.15;5.68;;;;;;;;;;4465379;32;20302;-55
2021/08/24 03:09:11;;;;;;;9.88;4.80;;;;;;;;;;4459645;32;20338;-57
2021/08/24 03:11:51;;;;;;;7.85;4.97;;;;;;;;;;4459574;32;20228;-56
2021/08/24 03:14:25;;;;;;;6.80;5.28;;;;;;;;;;4464756;32;20307;-57
2021/08/24 03:17:06;;;;;;;8.90;5.15;;;;;;;;;;4456668;32;20316;-57
2021/08/24 03:19:35;;;;;;;8.48;5.62;;;;;;;;;;4454696;32;20291;-56
2021/08/24 03:22:04;;;;;;;7.45;4.43;;;;;;;;;;4463187;32;20711;-56
2021/08/24 03:24:32;;;;;;;8.38;5.30;;;;;;;;;;4459398;32;20303;-55
2021/08/24 03:26:57;;;;;;;6.47;4.55;;;;;;;;;;4459101;32;20197;-57
2021/08/24 03:29:23;;;;;;;10.57;5.80;;;;;;;;;;4459384;32;20402;-55
2021/08/24 03:31:56;;;;;;;7.03;5.37;;;;;;;;;;4455834;32;20362;-58
2021/08/24 03:34:24;;;;;;;10.48;5.57;;;;;;;;;;4457906;32;20318;-56
2021/08/24 03:36:50;;;;;;;11.90;5.15;;;;;;;;;;4453859;32;20401;-56
2021/08/24 03:39:16;;;;;;;10.57;5.70;;;;;;;;;;4455827;32;20330;-56
2021/08/24 03:41:42;;;;;;;8.77;4.70;;;;;;;;;;4461695;32;20537;-56
2021/08/24 03:44:08;;;;;;;10.45;5.00;;;;;;;;;;4462049;32;20224;-57
2021/08/24 03:46:34;;;;;;;10.10;5.18;;;;;;;;;;4464148;32;20286;-56
2021/08/24 03:48:59;;;;;;;6.43;4.65;;;;;;;;;;4457730;32;20244;-56
2021/08/24 03:51:25;;;;;;;8.52;5.43;;;;;;;;;;4464916;32;20351;-57
2021/08/24 03:53:51;;;;;;;8.80;4.78;;;;;;;;;;4455037;32;20661;-56
2021/08/24 03:56:16;;;;;;;7.72;5.15;;;;;;;;;;4450907;32;20307;-56
2021/08/24 03:58:42;;;;;;;9.00;5.35;;;;;;;;;;4452566;32;20716;-56
2021/08/24 04:01:15;;;;;;;8.30;5.55;;;;;;;;;;4453785;32;20287;-56
2021/08/24 04:03:41;;;;;;;7.57;5.45;;;;;;;;;;4458980;32;20644;-56
2021/08/24 04:06:07;;;;;;;8.55;5.72;;;;;;;;;;4458131;32;20275;-56
2021/08/24 04:08:33;;;;;;;7.07;5.57;;;;;;;;;;4459753;32;20243;-54
2021/08/24 04:11:00;;;;;;;5.65;4.80;;;;;;;;;;4462756;32;20283;-56
2021/08/24 04:13:26;;;;;;;7.65;5.22;;;;;;;;;;4462716;32;20295;-55
2021/08/24 04:15:51;;;;;;;10.27;6.00;;;;;;;;;;4460434;32;20379;-55
2021/08/24 04:18:17;;;;;;;6.75;4.90;;;;;;;;;;4464168;32;20232;-55
2021/08/24 04:20:43;;;;;;;7.78;5.20;;;;;;;;;;4464405;32;20280;-55
2021/08/24 04:23:23;;;;;;;8.07;4.65;;;;;;;;;;4463856;32;20223;-54
2021/08/24 04:25:49;;;;;;;6.78;4.97;;;;;;;;;;4464412;32;20230;-54
2021/08/24 04:28:15;;;;;;;8.27;4.65;;;;;;;;;;4463197;32;20205;-54
2021/08/24 04:30:40;;;;;;;9.43;6.03;;;;;;;;;;4463810;32;20291;-56
2021/08/24 04:33:06;;;;;;;9.60;6.07;;;;;;;;;;4461947;32;20823;-53
2021/08/24 04:35:31;;;;;;;9.27;5.40;;;;;;;;;;4462879;32;20295;-54
2021/08/24 04:37:57;;;;;;;7.72;5.75;;;;;;;;;;4459973;32;20279;-55
2021/08/24 04:40:22;;;;;;;10.05;5.95;;;;;;;;;;4460152;32;20208;-55
2021/08/24 04:42:48;;;;;;;9.30;5.80;;;;;;;;;;4461552;32;20826;-55
2021/08/24 04:45:14;;;;;;;8.43;5.28;;;;;;;;;;4459238;32;20232;-55
2021/08/24 04:47:39;;;;;;;6.97;5.65;;;;;;;;;;4445931;32;20547;-55
2021/08/24 04:50:06;;;;;;;8.00;6.12;;;;;;;;;;4461322;32;20228;-55
2021/08/24 04:52:32;;;;;;;7.53;4.87;;;;;;;;;;4462315;32;20358;-55
2021/08/24 04:54:57;;;;;;;5.78;5.18;;;;;;;;;;4461606;32;20220;-55
2021/08/24 04:57:23;;;;;;;9.23;5.53;;;;;;;;;;4462372;32;20291;-55
2021/08/24 04:59:48;;;;;;;11.25;6.75;;;;;;;;;;4462596;32;20220;-53
2021/08/24 05:02:14;;;;;;;7.78;5.85;;;;;;;;;;4463532;32;20341;-54
2021/08/24 05:04:40;;;;;;;8.98;6.62;;;;;;;;;;4463673;32;20478;-54
2021/08/24 05:07:05;;;;;;;11.15;6.05;;;;;;;;;;4460608;32;20200;-54
2021/08/24 05:09:31;;;;;;;10.57;5.75;;;;;;;;;;4463630;32;20581;-54
2021/08/24 05:11:56;;;;;;;12.13;5.25;;;;;;;;;;4461221;32;20405;-55
2021/08/24 05:14:22;;;;;;;9.98;5.90;;;;;;;;;;4464190;32;20311;-54
2021/08/24 05:16:53;;;;;;;11.57;5.95;;;;;;;;;;4463584;32;20614;-54
2021/08/24 05:19:19;;;;;;;8.10;6.05;;;;;;;;;;4462723;32;20561;-54
2021/08/24 05:21:44;;;;;;;19.67;6.82;;;;;;;;;;4457531;32;20648;-54
2021/08/24 05:24:10;;;;;;;8.88;5.68;;;;;;;;;;4459508;32;20529;-54
2021/08/24 05:26:35;;;;;;;12.43;6.05;;;;;;;;;;4463926;32;20577;-54
2021/08/24 05:29:01;;;;;;;12.15;6.30;;;;;;;;;;4463899;32;20557;-54
2021/08/24 05:31:26;;;;;;;13.48;7.85;;;;;;;;;;4464277;32;20302;-54
2021/08/24 05:33:52;;;;;;;9.82;6.07;;;;;;;;;;4456181;32;20383;-54
2021/08/24 05:36:17;;;;;;;8.15;5.32;;;;;;;;;;4462201;32;20670;-53
2021/08/24 05:38:42;;;;;;;9.02;6.07;;;;;;;;;;4463835;32;20326;-54
2021/08/24 05:41:08;;;;;;;8.70;5.35;;;;;;;;;;4463882;32;20615;-54
2021/08/24 05:43:34;;;;;;;9.85;6.35;;;;;;;;;;4455662;32;20259;-54
2021/08/24 05:46:18;;;;;;;7.50;5.82;;;;;;;;;;4463576;32;20219;-55
2021/08/24 05:48:43;;;;;;;9.73;5.72;;;;;;;;;;4464072;32;20317;-56
2021/08/24 05:51:16;;;;;;;15.85;6.75;;;;;;;;;;4463000;32;20283;-55
2021/08/24 05:53:42;;;;;;;9.15;6.95;;;;;;;;;;4460628;32;20322;-54
2021/08/24 05:56:10;;;;;;;9.38;6.50;;;;;;;;;;4462810;32;20719;-53
2021/08/24 05:58:36;;;;;;;7.60;6.40;;;;;;;;;;4464675;32;20224;-54
2021/08/24 06:01:02;;;;;;;10.15;6.55;;;;;;;;;;4466863;32;20417;-54
2021/08/24 06:03:27;;;;;;;7.57;6.47;;;;;;;;;;4466580;32;20300;-54
2021/08/24 06:05:53;;;;;;;8.50;6.75;;;;;;;;;;4466039;32;20221;-54
2021/08/24 06:08:18;;;;;;;7.90;5.53;;;;;;;;;;4455029;32;20702;-54
2021/08/24 06:10:43;;;;;;;10.70;6.70;;;;;;;;;;4465695;32;20740;-55
2021/08/24 06:13:09;;;;;;;10.82;6.07;;;;;;;;;;4465316;32;20343;-55
2021/08/24 06:15:35;;;;;;;9.82;6.28;;;;;;;;;;4465441;32;20351;-54
2021/08/24 06:18:01;;;;;;;8.25;5.37;;;;;;;;;;4465546;32;20567;-54
2021/08/24 06:20:27;;;;;;;8.48;6.28;;;;;;;;;;4450561;32;20263;-55
2021/08/24 06:22:53;;;;;;;9.55;5.87;;;;;;;;;;4452903;32;20283;-54
2021/08/24 06:25:19;;;;;;;12.90;6.70;;;;;;;;;;4465802;32;20232;-54
2021/08/24 06:27:44;;;;;;;12.65;6.97;;;;;;;;;;4466195;32;20715;-55
2021/08/24 06:30:11;;;;;;;11.95;6.35;;;;;;;;;;4465839;32;20276;-54
2021/08/24 06:32:41;;;;;;;8.75;5.95;;;;;;;;;;4445467;32;20666;-54
2021/08/24 06:35:07;;;;;;;16.27;7.00;;;;;;;;;;4464008;32;20216;-54
2021/08/24 06:37:33;;;;;;;18.65;6.53;;;;;;;;;;4464888;32;20283;-55
2021/08/24 06:39:58;;;;;;;8.25;6.22;;;;;;;;;;4455523;32;20238;-54
2021/08/24 06:42:25;;;;;;;9.27;6.80;;;;;;;;;;4465187;32;20305;-55
2021/08/24 06:44:50;;;;;;;12.00;6.70;;;;;;;;;;4455758;32;20216;-54
2021/08/24 06:47:16;;;;;;;18.73;7.82;;;;;;;;;;4465678;32;20288;-54
2021/08/24 06:49:41;;;;;;;12.73;7.18;;;;;;;;;;4465413;32;20228;-54
2021/08/24 06:52:07;;;;;;;9.98;6.97;;;;;;;;;;4466026;32;20263;-54
2021/08/24 06:54:33;;;;;;;16.52;6.80;;;;;;;;;;4464944;32;20321;-54
2021/08/24 06:57:03;;;;;;;10.15;6.70;;;;;;;;;;4463555;32;20358;-54
2021/08/24 06:59:29;;;;;;;11.30;7.47;;;;;;;;;;4465840;32;20235;-54
2021/08/24 07:01:54;;;;;;;12.85;6.55;;;;;;;;;;4465591;32;20695;-54
2021/08/24 07:04:20;;;;;;;12.25;6.95;;;;;;;;;;4464678;32;20267;-54
2021/08/24 07:06:50;;;;;;;12.57;7.05;;;;;;;;;;4452205;32;20643;-54
2021/08/24 07:09:16;;;;;;;6.65;5.82;;;;;;;;;;4464370;32;20654;-54
2021/08/24 07:11:41;;;;;;;8.88;6.78;;;;;;;;;;4462044;32;20267;-54
2021/08/24 07:14:06;;;;;;;18.48;7.70;;;;;;;;;;4465737;32;20215;-54
2021/08/24 07:16:33;;;;;;;8.07;5.75;;;;;;;;;;4465903;32;20310;-54
2021/08/24 07:18:59;;;;;;;8.68;6.87;;;;;;;;;;4465698;32;20212;-54
2021/08/24 07:21:26;;;;;;;12.45;6.57;;;;;;;;;;4465291;32;20296;-54
2021/08/24 07:23:52;;;;;;;13.98;7.22;;;;;;;;;;4463131;32;20315;-54
2021/08/24 07:26:19;;;;;;;8.95;6.85;;;;;;;;;;4465296;32;20756;-54
2021/08/24 07:28:45;;;;;;;6.55;5.30;;;;;;;;;;4465362;32;20297;-55
2021/08/24 07:31:11;;;;;;;10.35;6.37;;;;;;;;;;4465704;32;20665;-55
2021/08/24 07:33:36;;;;;;;10.48;6.22;;;;;;;;;;4465358;32;20319;-55
2021/08/24 07:36:03;;;;;;;8.90;6.07;;;;;;;;;;4460914;32;20310;-54
2021/08/24 07:38:29;;;;;;;14.63;6.93;;;;;;;;;;4465458;32;20816;-55
2021/08/24 07:40:54;;;;;;;9.50;6.18;;;;;;;;;;4464801;32;20195;-54
2021/08/24 07:43:21;;;;;;;13.25;6.75;;;;;;;;;;4464885;32;20694;-55
2021/08/24 07:45:47;;;;;;;12.05;6.78;;;;;;;;;;4464799;32;20625;-55
2021/08/24 07:48:13;;;;;;;10.82;6.97;;;;;;;;;;4464723;32;20275;-54
2021/08/24 07:50:38;;;;;;;8.32;6.90;;;;;;;;;;4464250;32;20204;-54
2021/08/24 07:53:04;;;;;;;9.63;6.68;;;;;;;;;;4464893;32;20369;-54
2021/08/24 07:55:30;;;;;;;12.55;6.68;;;;;;;;;;4464596;32;20340;-56
2021/08/24 07:57:56;;;;;;;14.13;6.82;;;;;;;;;;4464525;32;20299;-54
2021/08/24 08:00:22;;;;;;;12.20;7.20;;;;;;;;;;4463318;32;20212;-54
2021/08/24 08:02:48;;;;;;;13.13;7.22;;;;;;;;;;4464873;32;20204;-54
2021/08/24 08:05:14;;;;;;;9.88;6.62;;;;;;;;;;4462680;32;20648;-54
2021/08/24 08:07:40;;;;;;;8.95;5.80;;;;;;;;;;4463567;32;20303;-54
2021/08/24 08:10:06;;;;;;;9.48;6.75;;;;;;;;;;4463504;32;20207;-55
2021/08/24 08:12:32;;;;;;;11.43;6.70;;;;;;;;;;4463341;32;20347;-55
2021/08/24 08:14:58;;;;;;;10.98;6.68;;;;;;;;;;4464566;32;20228;-54
2021/08/24 08:17:23;;;;;;;10.18;6.12;;;;;;;;;;4463927;32;20216;-54
2021/08/24 08:19:48;;;;;;;8.70;6.28;;;;;;;;;;4462937;32;20767;-54
2021/08/24 08:22:14;;;;;;;8.52;5.97;;;;;;;;;;4463559;32;20275;-54
2021/08/24 08:24:40;;;;;;;8.65;5.40;;;;;;;;;;4463774;32;20376;-55
2021/08/24 08:27:05;;;;;;;9.05;6.40;;;;;;;;;;4464693;32;20402;-57
2021/08/24 08:29:31;;;;;;;10.98;6.90;;;;;;;;;;4464413;32;20240;-55
2021/08/24 08:32:01;;;;;;;9.68;5.72;;;;;;;;;;4460706;32;20298;-55
2021/08/24 08:34:27;;;;;;;10.63;6.80;;;;;;;;;;4463462;32;20236;-55
2021/08/24 08:36:53;;;;;;;6.05;5.45;;;;;;;;;;4464878;32;20305;-55
2021/08/24 08:39:19;;;;;;;11.50;6.32;;;;;;;;;;4463212;32;20253;-54
2021/08/24 08:42:04;;;;;;;7.20;5.37;;;;;;;;;;4464426;32;20309;-54
2021/08/24 08:44:32;;;;;;;9.77;6.55;;;;;;;;;;4462675;32;20284;-54
2021/08/24 08:46:58;;;;;;;8.00;5.62;;;;;;;;;;4464513;32;20544;-54
2021/08/24 08:49:51;;;;;;;9.23;5.62;;;;;;;;;;4464151;32;20368;-54
2021/08/24 08:52:24;;;;;;;8.00;5.87;;;;;;;;;;4463920;32;20264;-55
2021/08/24 08:54:56;;;;;;;8.27;5.82;;;;;;;;;;4455869;32;20291;-54
2021/08/24 08:57:53;;;;;;;9.57;6.62;;;;;;;;;;4462526;32;20208;-54
2021/08/24 09:00:42;;;;;;;9.65;6.72;;;;;;;;;;4456619;32;20404;-54
2021/08/24 09:03:26;;;;;;;7.78;4.93;;;;;;;;;;4462856;32;20220;-55
2021/08/24 09:05:54;;;;;;;6.82;5.37;;;;;;;;;;4463868;32;20227;-55
2021/08/24 09:08:22;;;;;;;7.57;5.25;;;;;;;;;;4463722;32;20238;-55
2021/08/24 09:10:51;;;;;;;14.18;5.90;;;;;;;;;;4462863;32;20203;-55
2021/08/24 09:13:34;;;;;;;9.55;5.57;;;;;;;;;;4463184;32;20236;-55
2021/08/24 09:16:19;;;;;;;11.12;6.03;;;;;;;;;;4462828;32;20234;-54
2021/08/24 09:18:56;;;;;;;11.98;5.60;;;;;;;;;;4463297;32;20203;-55
2021/08/24 09:21:29;;;;;;;21.92;6.97;;;;;;;;;;4448282;32;20279;-55
2021/08/24 09:23:57;;;;;;;7.75;5.68;;;;;;;;;;4457884;32;20208;-55
2021/08/24 09:26:32;;;;;;;11.48;6.43;;;;;;;;;;4462380;32;20353;-55
2021/08/24 09:28:57;;;;;;;11.15;6.55;;;;;;;;;;4463078;32;20619;-55
2021/08/24 09:31:24;;;;;;;12.25;4.60;;;;;;;;;;4463059;32;20275;-55
2021/08/24 09:33:50;;;;;;;7.80;5.28;;;;;;;;;;4467180;32;20212;-55
2021/08/24 09:36:17;;;;;;;7.55;6.05;;;;;;;;;;4468563;32;20271;-55
2021/08/24 09:38:50;;;;;;;6.80;5.15;;;;;;;;;;4465595;32;20361;-55
2021/08/24 09:41:27;;;;;;;7.50;5.68;;;;;;;;;;4468394;32;20683;-55
2021/08/24 09:43:54;;;;;;;7.50;5.37;;;;;;;;;;4456060;32;20303;-55
2021/08/24 09:46:20;;;;;;;4.65;4.25;;;;;;;;;;4466769;32;20227;-55
2021/08/24 09:49:07;;;;;;;7.93;5.30;;;;;;;;;;4454876;32;20566;-55
2021/08/24 09:51:38;;;;;;;8.07;5.07;;;;;;;;;;4468682;32;20278;-55
2021/08/24 09:54:27;;;;;;;10.48;5.05;;;;;;;;;;4468315;32;20302;-56
2021/08/24 09:56:58;;;;;;;6.62;4.87;;;;;;;;;;4468272;32;20287;-55
2021/08/24 09:59:30;;;;;;;7.45;5.68;;;;;;;;;;4455557;32;20659;-55
2021/08/24 10:01:56;;;;;;;7.03;4.97;;;;;;;;;;4467946;32;20223;-55
2021/08/24 10:04:22;;;;;;;6.95;4.87;;;;;;;;;;4467909;32;20272;-55
2021/08/24 10:07:05;;;;;;;9.20;5.03;;;;;;;;;;4468566;32;20755;-57
2021/08/24 10:09:37;;;;;;;8.52;5.55;;;;;;;;;;4468639;32;20291;-55
2021/08/24 10:12:15;;;;;;;6.45;5.10;;;;;;;;;;4468187;32;20290;-55
2021/08/24 10:14:42;;;;;;;8.07;4.87;;;;;;;;;;4460540;32;20223;-55
2021/08/24 10:17:22;;;;;;;7.15;5.72;;;;;;;;;;4460473;32;20212;-55
2021/08/24 10:19:48;;;;;;;6.12;5.25;;;;;;;;;;4466379;32;20307;-55
2021/08/24 10:22:26;;;;;;;8.75;5.90;;;;;;;;;;4467779;32;20223;-55
2021/08/24 10:25:03;;;;;;;5.40;4.57;;;;;;;;;;4468772;32;20212;-55
2021/08/24 10:27:45;;;;;;;8.70;5.95;;;;;;;;;;4468580;32;20207;-55
2021/08/24 10:30:15;;;;;;;6.22;4.90;;;;;;;;;;4451613;32;20660;-55
2021/08/24 10:32:54;;;;;;;10.52;5.72;;;;;;;;;;4467840;32;20235;-55
2021/08/24 10:35:26;;;;;;;6.60;5.20;;;;;;;;;;4468143;32;20195;-55
2021/08/24 10:37:52;;;;;;;6.47;5.75;;;;;;;;;;4468142;32;20302;-55
2021/08/24 10:40:20;;;;;;;6.60;5.40;;;;;;;;;;4468334;32;20588;-55
2021/08/24 10:43:01;;;;;;;9.82;5.43;;;;;;;;;;4467333;32;20238;-54
2021/08/24 10:45:33;;;;;;;6.62;5.12;;;;;;;;;;4466196;32;20314;-55
2021/08/24 10:48:03;;;;;;;7.72;5.30;;;;;;;;;;4465646;32;20636;-55
2021/08/24 10:50:40;;;;;;;9.55;5.20;;;;;;;;;;4465278;32;20268;-55
2021/08/24 10:53:24;;;;;;;8.73;4.62;;;;;;;;;;4465437;32;20209;-55
2021/08/24 10:55:57;;;;;;;6.15;4.85;;;;;;;;;;4465166;32;20208;-55
2021/08/24 10:58:31;;;;;;;6.18;5.05;;;;;;;;;;4456200;32;20311;-55
2021/08/24 11:01:07;;;;;;;5.80;5.15;;;;;;;;;;4464881;32;20393;-55
2021/08/24 11:04:00;;;;;;;7.20;4.97;;;;;;;;;;4465718;32;20699;-55
2021/08/24 11:06:58;;;;;;;6.35;4.85;;;;;;;;;;4465955;32;20779;-54
2021/08/24 11:10:05;;;;;;;6.47;5.45;;;;;;;;;;4465450;32;20279;-55
2021/08/24 11:12:45;;;;;;;7.75;4.70;;;;;;;;;;4378024;32;20317;-55
2021/08/24 11:15:55;;;;;;;7.00;4.78;;;;;;;;;;4446648;32;20216;-55
2021/08/24 11:18:43;;;;;;;6.75;4.80;;;;;;;;;;4393891;32;20227;-55
2021/08/24 11:21:43;;;;;;;5.90;4.75;;;;;;;;;;4463735;32;20553;-55
2021/08/24 11:24:21;;;;;;;5.28;4.47;;;;;;;;;;4464839;32;20424;-55
2021/08/24 11:26:58;;;;;;;5.10;4.60;;;;;;;;;;4459301;32;20329;-55
2021/08/24 11:29:56;;;;;;;6.37;5.07;;;;;;;;;;4459922;32;20385;-55
2021/08/24 11:32:40;;;;;;;7.90;5.20;;;;;;;;;;4446053;32;20239;-55
2021/08/24 11:35:18;;;;;;;5.72;4.65;;;;;;;;;;4462781;32;20220;-55
2021/08/24 11:37:46;;;;;;;7.15;5.32;;;;;;;;;;4465557;32;20585;-55
2021/08/24 11:40:22;;;;;;;7.57;4.87;;;;;;;;;;4464414;32;20591;-55
2021/08/24 11:42:53;;;;;;;5.60;5.10;;;;;;;;;;4464961;32;20203;-55
2021/08/24 11:45:45;;;;;;;6.55;4.72;;;;;;;;;;4465283;32;20311;-55
2021/08/24 11:48:34;;;;;;;6.18;4.95;;;;;;;;;;4443038;32;20302;-55
2021/08/24 11:51:15;;;;;;;5.80;5.22;;;;;;;;;;4465076;32;20248;-55
2021/08/24 11:53:52;;;;;;;5.82;4.50;;;;;;;;;;4464163;32;20286;-55
2021/08/24 11:56:28;;;;;;;13.62;5.62;;;;;;;;;;4448061;32;20247;-55
2021/08/24 11:58:53;;;;;;;5.90;4.90;;;;;;;;;;4462252;32;20238;-55
2021/08/24 12:01:22;;;;;;;7.57;5.32;;;;;;;;;;4464955;32;20644;-55
2021/08/24 12:03:57;;;;;;;8.43;5.25;;;;;;;;;;4465552;32;20203;-55
2021/08/24 12:06:32;;;;;;;5.55;5.00;;;;;;;;;;4464434;32;20359;-55
2021/08/24 12:09:00;;;;;;;6.10;5.18;;;;;;;;;;4463381;32;20273;-55
2021/08/24 12:11:45;;;;;;;5.90;4.78;;;;;;;;;;4464844;32;20576;-56
2021/08/24 12:14:34;;;;;;;6.97;5.03;;;;;;;;;;4464138;32;20284;-55
2021/08/24 12:17:20;;;;;;;5.82;4.55;;;;;;;;;;4465072;32;20188;-56
2021/08/24 12:19:55;;;;;;;5.62;4.45;;;;;;;;;;4464680;32;20304;-56
2021/08/24 12:22:26;;;;;;;7.43;4.82;;;;;;;;;;4464353;32;20314;-55
2021/08/24 12:24:55;;;;;;;5.05;4.60;;;;;;;;;;4464287;32;20236;-55
2021/08/24 12:27:20;;;;;;;6.85;4.87;;;;;;;;;;4460249;32;20678;-55
2021/08/24 12:29:46;;;;;;;4.57;4.15;;;;;;;;;;4453198;32;20288;-56
2021/08/24 12:32:12;;;;;;;7.60;4.50;;;;;;;;;;4455548;32;20658;-55
2021/08/24 12:34:39;;;;;;;5.12;4.57;;;;;;;;;;4449450;32;20232;-55
2021/08/24 12:37:10;;;;;;;5.85;4.68;;;;;;;;;;4448851;32;20205;-56
2021/08/24 12:39:41;;;;;;;7.40;5.05;;;;;;;;;;4448811;32;20311;-56
2021/08/24 12:42:29;;;;;;;11.75;4.18;;;;;;;;;;4448336;32;20558;-56
2021/08/24 12:44:57;;;;;;;6.85;4.62;;;;;;;;;;4450414;32;20268;-55
2021/08/24 12:47:29;;;;;;;5.95;4.25;;;;;;;;;;4448888;32;20315;-55
2021/08/24 12:49:58;;;;;;;4.87;4.35;;;;;;;;;;4455583;32;20262;-55
2021/08/24 12:52:30;;;;;;;7.15;4.82;;;;;;;;;;4457147;32;20259;-55
2021/08/24 12:55:07;;;;;;;7.40;4.40;;;;;;;;;;4459027;32;20228;-55
2021/08/24 12:57:42;;;;;;;6.80;4.53;;;;;;;;;;4457530;32;20663;-55
2021/08/24 13:00:20;;;;;;;6.68;4.53;;;;;;;;;;4453719;32;20265;-56
2021/08/24 13:03:04;;;;;;;11.18;4.45;;;;;;;;;;4454164;32;20292;-52
2021/08/24 13:05:34;;;;;;;4.80;4.22;;;;;;;;;;4457510;32;20264;-52
2021/08/24 13:08:09;;;;;;;6.05;4.60;;;;;;;;;;4453887;32;20230;-52
2021/08/24 13:10:46;;;;;;;9.45;4.68;;;;;;;;;;4458436;32;20208;-53
2021/08/24 13:13:35;;;;;;;8.90;5.05;;;;;;;;;;4463860;32;20760;-52
2021/08/24 13:16:11;;;;;;;6.78;4.32;;;;;;;;;;4445882;32;20605;-52
2021/08/24 13:18:44;;;;;;;6.25;5.12;;;;;;;;;;4456113;32;20270;-52
2021/08/24 13:21:30;;;;;;;6.32;4.93;;;;;;;;;;4457178;32;20376;-52
2021/08/24 13:24:05;;;;;;;6.22;4.57;;;;;;;;;;4447799;32;20573;-53
2021/08/24 13:26:51;;;;;;;5.35;4.68;;;;;;;;;;4460520;32;20354;-53
2021/08/24 13:29:18;;;;;;;7.07;4.87;;;;;;;;;;4463604;32;20310;-54
2021/08/24 13:31:51;;;;;;;5.93;5.32;;;;;;;;;;4462930;32;20548;-52
2021/08/24 13:34:37;;;;;;;5.57;5.00;;;;;;;;;;4448672;32;20600;-52
2021/08/24 13:37:03;;;;;;;8.93;5.12;;;;;;;;;;4462820;32;20309;-52
2021/08/24 13:39:28;;;;;;;6.20;5.40;;;;;;;;;;4462694;32;20568;-53
2021/08/24 13:42:03;;;;;;;7.32;5.20;;;;;;;;;;4462898;32;20350;-53
2021/08/24 13:44:33;;;;;;;6.43;5.32;;;;;;;;;;4463604;32;20212;-52
2021/08/24 13:47:18;;;;;;;7.18;4.90;;;;;;;;;;4463166;32;20201;-52
2021/08/24 13:49:49;;;;;;;5.87;5.32;;;;;;;;;;4462861;32;20685;-52
2021/08/24 13:52:37;;;;;;;6.53;4.87;;;;;;;;;;4461701;32;20719;-53
2021/08/24 13:55:21;;;;;;;5.62;4.93;;;;;;;;;;4463172;32;20380;-52
2021/08/24 13:57:46;;;;;;;6.37;5.00;;;;;;;;;;4463229;32;20216;-52
2021/08/24 14:00:18;;;;;;;6.00;5.22;;;;;;;;;;4462411;32;20457;-52
2021/08/24 14:02:48;;;;;;;8.30;5.47;;;;;;;;;;4463426;32;20218;-52
2021/08/24 14:05:15;;;;;;;5.93;5.35;;;;;;;;;;4457726;32;20216;-52
2021/08/24 14:07:42;;;;;;;7.60;5.05;;;;;;;;;;4463498;32;20197;-52
2021/08/24 14:10:20;;;;;;;6.07;5.00;;;;;;;;;;4463304;32;20231;-53
2021/08/24 14:12:51;;;;;;;6.30;5.12;;;;;;;;;;4460301;32;20768;-54
2021/08/24 14:15:32;;;;;;;6.30;5.10;;;;;;;;;;4460054;32;20254;-53
2021/08/24 14:18:01;;;;;;;5.95;5.07;;;;;;;;;;4463257;32;20319;-53
2021/08/24 14:20:30;;;;;;;6.93;4.82;;;;;;;;;;4464861;32;20547;-53
2021/08/24 14:23:01;;;;;;;7.18;4.80;;;;;;;;;;4456764;32;20250;-53
2021/08/24 14:25:33;;;;;;;5.22;4.70;;;;;;;;;;4456853;32;20261;-53
2021/08/24 14:28:04;;;;;;;7.45;6.07;;;;;;;;;;4457641;32;20244;-53
2021/08/24 14:30:30;;;;;;;7.03;5.35;;;;;;;;;;4458808;32;20216;-53
2021/08/24 14:32:56;;;;;;;7.55;5.28;;;;;;;;;;4464976;32;20289;-53
2021/08/24 14:35:49;;;;;;;7.12;5.18;;;;;;;;;;4459729;32;20629;-53
2021/08/24 14:38:24;;;;;;;7.20;6.05;;;;;;;;;;4464566;32;20634;-53
2021/08/24 14:40:50;;;;;;;6.50;5.20;;;;;;;;;;4457941;32;20249;-53
2021/08/24 14:43:17;;;;;;;7.03;5.07;;;;;;;;;;4454590;32;20732;-54
2021/08/24 14:45:52;;;;;;;6.82;6.03;;;;;;;;;;4464634;32;20302;-54
2021/08/24 14:48:26;;;;;;;7.50;5.60;;;;;;;;;;4465199;32;20276;-53
2021/08/24 14:50:58;;;;;;;8.48;6.07;;;;;;;;;;4464937;32;20257;-54
2021/08/24 14:53:39;;;;;;;5.50;5.00;;;;;;;;;;4465849;32;20373;-54
2021/08/24 14:56:11;;;;;;;6.50;5.80;;;;;;;;;;4465983;32;20636;-54
2021/08/24 14:58:39;;;;;;;6.65;4.75;;;;;;;;;;4457802;32;20232;-53
2021/08/24 15:01:09;;;;;;;7.35;6.55;;;;;;;;;;4464768;32;20244;-52
2021/08/24 15:04:06;;;;;;;7.07;5.50;;;;;;;;;;4464296;32;20328;-53
2021/08/24 15:06:51;;;;;;;7.00;6.07;;;;;;;;;;4465370;32;20274;-52
2021/08/24 15:09:26;;;;;;;6.82;5.93;;;;;;;;;;4464878;32;20709;-52